Time;durP1;ratioP1;P1;durP2;ratioP2;P2;SDS_P1;SDS_P2;PMS_P1;PMS_P2;Temp;Humidity;BMP_temperature;BMP_pressure;BME280_temperature;BME280_humidity;BME280_pressure;Samples;Min_cycle;Max_cycle;Signal;HPM_P1;HPM_P2
2023/03/21 00:00:16;;;;;;;4.82;2.45;;;4.40;99.90;;;;;;2076520;28;20213;-63
2023/03/21 00:01:22;;;;;;;2.88;2.15;;;4.40;99.90;;;;;;2076287;28;20189;-63
2023/03/21 00:02:28;;;;;;;4.20;2.15;;;4.40;99.90;;;;;;2067828;28;20255;-63
2023/03/21 00:03:34;;;;;;;4.60;2.10;;;4.40;99.90;;;;;;2069165;28;20186;-63
2023/03/21 00:04:39;;;;;;;4.45;2.40;;;4.40;99.90;;;;;;2076668;28;20243;-63
2023/03/21 00:05:48;;;;;;;3.55;2.40;;;4.40;99.90;;;;;;2076498;28;20224;-62
2023/03/21 00:06:54;;;;;;;2.58;2.03;;;4.40;99.90;;;;;;2076787;28;20196;-63
2023/03/21 00:08:00;;;;;;;6.32;2.58;;;4.30;99.90;;;;;;2076417;28;20180;-63
2023/03/21 00:09:04;;;;;;;2.97;2.20;;;4.40;99.90;;;;;;2079822;28;20242;-63
2023/03/21 00:10:10;;;;;;;2.65;2.25;;;4.30;99.90;;;;;;2076708;28;20250;-63
2023/03/21 00:11:15;;;;;;;3.05;2.40;;;4.40;99.90;;;;;;2076435;28;20672;-63
2023/03/21 00:12:21;;;;;;;4.80;2.55;;;4.40;99.90;;;;;;2067764;28;20237;-62
2023/03/21 00:13:31;;;;;;;4.07;2.30;;;4.30;99.90;;;;;;2069188;28;20189;-63
2023/03/21 00:14:37;;;;;;;5.22;2.53;;;4.30;99.90;;;;;;2076567;28;20222;-63
2023/03/21 00:15:53;;;;;;;3.28;2.30;;;4.30;99.90;;;;;;2076326;28;20193;-63
2023/03/21 00:16:59;;;;;;;2.60;2.30;;;4.20;99.90;;;;;;2078581;28;20195;-63
2023/03/21 00:18:10;;;;;;;2.85;2.10;;;4.20;99.90;;;;;;2077086;28;20205;-63
2023/03/21 00:19:19;;;;;;;3.67;2.25;;;4.20;99.90;;;;;;2081651;28;20199;-63
2023/03/21 00:20:25;;;;;;;4.38;2.75;;;4.20;99.90;;;;;;2077020;28;20246;-62
2023/03/21 00:21:32;;;;;;;3.97;2.28;;;4.20;99.90;;;;;;2076972;28;20200;-62
2023/03/21 00:22:37;;;;;;;5.55;2.35;;;4.10;99.90;;;;;;2067673;28;20211;-63
2023/03/21 00:23:45;;;;;;;2.63;2.13;;;4.10;99.90;;;;;;2069386;28;20704;-63
2023/03/21 00:24:51;;;;;;;5.28;2.55;;;4.00;99.90;;;;;;2076694;28;20196;-63
2023/03/21 00:25:58;;;;;;;2.63;2.15;;;4.00;99.90;;;;;;2076612;28;20219;-62
2023/03/21 00:27:04;;;;;;;2.67;2.33;;;4.00;99.90;;;;;;2076625;28;20199;-60
2023/03/21 00:28:04;;;;;;;4.23;2.30;;;4.00;99.90;;;;;;2076412;28;20192;-63
2023/03/21 00:29:09;;;;;;;3.75;2.50;;;4.00;99.90;;;;;;2076521;28;20193;-60
2023/03/21 00:30:15;;;;;;;4.30;3.03;;;4.00;99.90;;;;;;2076471;28;20946;-63
2023/03/21 00:31:21;;;;;;;4.18;2.40;;;3.90;99.90;;;;;;2076361;28;20196;-62
2023/03/21 00:32:27;;;;;;;2.55;2.03;;;3.90;99.90;;;;;;2076560;28;20748;-62
2023/03/21 00:33:34;;;;;;;4.65;2.17;;;3.90;99.90;;;;;;2076608;28;20193;-63
2023/03/21 00:34:41;;;;;;;3.92;2.20;;;3.80;99.90;;;;;;2076453;28;20207;-61
2023/03/21 00:35:50;;;;;;;2.85;2.25;;;3.80;99.90;;;;;;2076570;28;20240;-63
2023/03/21 00:36:56;;;;;;;2.80;1.98;;;3.90;99.90;;;;;;2076461;28;20195;-63
2023/03/21 00:38:02;;;;;;;3.35;2.28;;;3.80;99.90;;;;;;2076717;28;20195;-63
2023/03/21 00:39:05;;;;;;;3.25;2.10;;;3.70;99.90;;;;;;2076337;28;20278;-62
2023/03/21 00:40:11;;;;;;;3.20;2.00;;;3.60;99.90;;;;;;2076386;28;20207;-63
2023/03/21 00:41:16;;;;;;;3.85;2.38;;;3.70;99.90;;;;;;2076233;28;20670;-63
2023/03/21 00:42:22;;;;;;;4.45;2.30;;;3.70;99.90;;;;;;2076380;28;20212;-63
2023/03/21 00:43:31;;;;;;;2.65;2.03;;;3.70;99.90;;;;;;2078417;28;20185;-63
2023/03/21 00:44:39;;;;;;;3.40;2.10;;;3.70;99.90;;;;;;2073268;28;20186;-63
2023/03/21 00:45:45;;;;;;;2.67;2.15;;;3.70;99.90;;;;;;2076587;28;20188;-63
2023/03/21 00:46:51;;;;;;;2.88;2.20;;;3.60;99.90;;;;;;2076598;28;20202;-63
2023/03/21 00:47:57;;;;;;;3.28;2.20;;;3.60;99.90;;;;;;2076583;28;20195;-62
2023/03/21 00:49:03;;;;;;;3.95;2.97;;;3.60;99.90;;;;;;2076425;28;20573;-63
2023/03/21 00:50:06;;;;;;;2.97;1.83;;;3.60;99.90;;;;;;2076428;28;20262;-63
2023/03/21 00:51:24;;;;;;;2.22;1.90;;;3.50;99.90;;;;;;2076310;28;20195;-62
2023/03/21 00:52:30;;;;;;;2.85;2.17;;;3.50;99.90;;;;;;2079545;28;20216;-63
2023/03/21 00:53:36;;;;;;;3.28;2.25;;;3.50;99.90;;;;;;2076371;28;20246;-63
2023/03/21 00:54:41;;;;;;;5.22;2.60;;;3.50;99.90;;;;;;2076478;28;20215;-63
2023/03/21 00:55:48;;;;;;;4.15;2.50;;;3.50;99.90;;;;;;2076213;28;20188;-63
2023/03/21 00:56:53;;;;;;;4.57;2.78;;;3.50;99.90;;;;;;2076577;28;20271;-63
2023/03/21 00:57:59;;;;;;;3.05;2.33;;;3.50;99.90;;;;;;2076414;28;20237;-63
2023/03/21 00:59:05;;;;;;;2.75;2.20;;;3.50;99.90;;;;;;2078348;28;20568;-63
2023/03/21 01:00:11;;;;;;;3.80;2.35;;;3.60;99.90;;;;;;2079875;28;20212;-63
2023/03/21 01:01:17;;;;;;;2.90;2.17;;;3.50;99.90;;;;;;2067517;28;20184;-63
2023/03/21 01:02:25;;;;;;;3.55;2.30;;;3.50;99.90;;;;;;2069053;28;20244;-62
2023/03/21 01:03:41;;;;;;;3.55;2.53;;;3.50;99.90;;;;;;2076352;28;21000;-63
2023/03/21 01:04:48;;;;;;;3.83;2.65;;;3.50;99.90;;;;;;2076474;28;20214;-62
2023/03/21 01:06:04;;;;;;;3.15;2.50;;;3.40;99.90;;;;;;2076951;28;20183;-63
2023/03/21 01:07:08;;;;;;;4.32;2.92;;;3.50;99.90;;;;;;2077813;28;20182;-63
2023/03/21 01:08:12;;;;;;;4.57;2.40;;;3.50;99.90;;;;;;2077648;28;20209;-62
2023/03/21 01:09:21;;;;;;;3.85;2.70;;;3.40;99.90;;;;;;2077891;28;20188;-63
2023/03/21 01:10:27;;;;;;;4.65;2.50;;;3.40;99.90;;;;;;2076994;28;20198;-62
2023/03/21 01:11:33;;;;;;;3.47;2.90;;;3.40;99.90;;;;;;2077154;28;20588;-63
2023/03/21 01:12:39;;;;;;;4.00;2.97;;;3.40;99.90;;;;;;2077626;28;20215;-63
2023/03/21 01:13:45;;;;;;;8.82;2.63;;;3.50;99.90;;;;;;2077797;28;20187;-63
2023/03/21 01:14:51;;;;;;;3.40;2.55;;;3.50;99.90;;;;;;2077899;28;20192;-62
2023/03/21 01:15:57;;;;;;;3.88;2.60;;;3.40;99.90;;;;;;2077526;28;20597;-63
2023/03/21 01:17:04;;;;;;;4.38;3.15;;;3.40;99.90;;;;;;2077828;28;20276;-63
2023/03/21 01:18:09;;;;;;;5.82;3.03;;;3.40;99.90;;;;;;2077612;28;20211;-62
2023/03/21 01:19:19;;;;;;;3.65;2.40;;;3.40;99.90;;;;;;2077705;28;20223;-63
2023/03/21 01:20:26;;;;;;;2.92;2.25;;;3.40;99.90;;;;;;2077723;28;20292;-63
2023/03/21 01:21:32;;;;;;;2.83;2.20;;;3.40;99.90;;;;;;2077444;28;20267;-62
2023/03/21 01:22:37;;;;;;;3.20;2.63;;;3.30;99.90;;;;;;2077629;28;20204;-63
2023/03/21 01:23:43;;;;;;;4.10;2.42;;;3.30;99.90;;;;;;2077929;28;20202;-61
2023/03/21 01:24:49;;;;;;;4.55;2.20;;;3.30;99.90;;;;;;2077838;28;20816;-63
2023/03/21 01:25:56;;;;;;;2.42;2.10;;;3.30;99.90;;;;;;2078051;28;20287;-63
2023/03/21 01:27:02;;;;;;;2.80;2.08;;;3.30;99.90;;;;;;2077872;28;20261;-63
2023/03/21 01:28:05;;;;;;;2.58;1.92;;;3.20;99.90;;;;;;2077596;28;20179;-63
2023/03/21 01:29:10;;;;;;;4.57;2.35;;;3.30;99.90;;;;;;2077486;28;20170;-63
2023/03/21 01:30:16;;;;;;;3.70;2.40;;;3.30;99.90;;;;;;2077577;28;20609;-62
2023/03/21 01:31:22;;;;;;;4.13;2.35;;;3.20;99.90;;;;;;2077314;28;20217;-63
2023/03/21 01:32:27;;;;;;;2.72;2.20;;;3.20;99.90;;;;;;2077473;28;20228;-63
2023/03/21 01:33:34;;;;;;;2.42;2.05;;;3.20;99.90;;;;;;2077582;28;20227;-63
2023/03/21 01:34:40;;;;;;;2.58;1.88;;;3.10;99.90;;;;;;2068829;28;20233;-61
2023/03/21 01:35:46;;;;;;;2.33;1.85;;;3.10;99.90;;;;;;2070669;28;20267;-63
2023/03/21 01:36:53;;;;;;;2.42;1.75;;;3.10;99.90;;;;;;2077859;28;20206;-63
2023/03/21 01:37:58;;;;;;;3.80;2.22;;;3.10;99.90;;;;;;2077944;28;20275;-63
2023/03/21 01:39:05;;;;;;;2.20;1.83;;;3.10;99.90;;;;;;2077084;28;20211;-63
2023/03/21 01:40:25;;;;;;;3.58;2.20;;;3.00;99.90;;;;;;2077544;28;20218;-63
2023/03/21 01:41:42;;;;;;;2.80;1.80;;;3.00;99.90;;;;;;2077488;28;20280;-63
2023/03/21 01:42:47;;;;;;;3.42;2.03;;;3.00;99.90;;;;;;2079286;28;20191;-63
2023/03/21 01:43:54;;;;;;;3.10;2.05;;;3.00;99.90;;;;;;2077430;28;20189;-63
2023/03/21 01:45:26;;;;;;;3.92;2.35;;;3.00;99.90;;;;;;2077578;28;20199;-63
2023/03/21 01:46:52;;;;;;;3.13;2.25;;;2.90;99.90;;;;;;2077378;28;20547;-62
2023/03/21 01:47:58;;;;;;;3.63;2.70;;;2.80;99.90;;;;;;2080204;28;20195;-62
2023/03/21 01:49:14;;;;;;;3.17;2.05;;;2.80;99.90;;;;;;2077475;28;20672;-63
2023/03/21 01:50:21;;;;;;;3.92;2.17;;;2.80;99.90;;;;;;2068817;28;20242;-63
2023/03/21 01:51:28;;;;;;;5.55;2.25;;;2.80;99.90;;;;;;2069894;28;20191;-63
2023/03/21 01:52:37;;;;;;;3.35;2.33;;;2.80;99.90;;;;;;2068710;28;20223;-63
2023/03/21 01:53:43;;;;;;;3.17;2.40;;;2.80;99.90;;;;;;2070412;28;20187;-63
2023/03/21 01:54:51;;;;;;;2.60;2.08;;;2.90;99.90;;;;;;2068676;28;20546;-63
2023/03/21 01:56:05;;;;;;;3.08;2.15;;;2.90;99.90;;;;;;2070423;28;20200;-63
2023/03/21 01:57:31;;;;;;;3.50;2.22;;;2.90;99.90;;;;;;2079873;28;20266;-63
2023/03/21 01:58:39;;;;;;;5.88;2.30;;;2.80;99.90;;;;;;2071082;28;20189;-62
2023/03/21 01:59:53;;;;;;;3.20;2.13;;;2.80;99.90;;;;;;2071202;28;20241;-63
2023/03/21 02:01:01;;;;;;;3.72;2.20;;;2.80;99.90;;;;;;2077419;28;20276;-62
2023/03/21 02:02:11;;;;;;;2.83;2.20;;;2.80;99.90;;;;;;2076395;28;20258;-63
2023/03/21 02:03:17;;;;;;;4.65;2.78;;;2.80;99.90;;;;;;2076988;28;20543;-63
2023/03/21 02:04:26;;;;;;;2.33;2.10;;;2.80;99.90;;;;;;2077261;28;20182;-63
2023/03/21 02:05:39;;;;;;;3.03;2.15;;;2.80;99.90;;;;;;2068788;28;20185;-63
2023/03/21 02:07:24;;;;;;;2.95;2.08;;;2.80;99.90;;;;;;2071462;28;20191;-63
2023/03/21 02:08:31;;;;;;;3.67;2.10;;;2.70;99.90;;;;;;2077380;28;20178;-63
2023/03/21 02:09:41;;;;;;;2.05;1.85;;;2.70;99.90;;;;;;2077451;28;20192;-63
2023/03/21 02:10:48;;;;;;;4.45;2.28;;;2.70;99.90;;;;;;2076694;28;20246;-63
2023/03/21 02:11:54;;;;;;;4.00;2.00;;;2.60;99.90;;;;;;2076766;28;20194;-62
2023/03/21 02:13:08;;;;;;;2.10;1.80;;;2.60;99.90;;;;;;2076834;28;20241;-63
2023/03/21 02:14:15;;;;;;;3.42;1.85;;;2.60;99.90;;;;;;2077131;28;20569;-63
2023/03/21 02:15:23;;;;;;;2.33;1.95;;;2.60;99.90;;;;;;2077430;28;20198;-62
2023/03/21 02:17:01;;;;;;;2.88;2.05;;;2.70;99.90;;;;;;2070451;28;20223;-63
2023/03/21 02:18:20;;;;;;;2.63;2.15;;;2.70;99.90;;;;;;2079465;28;20609;-63
2023/03/21 02:19:56;;;;;;;3.33;2.20;;;2.60;99.90;;;;;;2077785;28;20185;-63
2023/03/21 02:21:20;;;;;;;3.20;2.05;;;2.60;99.90;;;;;;2076984;28;20198;-62
2023/03/21 02:22:44;;;;;;;4.30;2.55;;;2.50;99.90;;;;;;2076996;28;20219;-63
2023/03/21 02:24:33;;;;;;;3.47;2.58;;;2.60;99.90;;;;;;2078610;28;20201;-62
2023/03/21 02:26:39;;;;;;;3.55;2.50;;;2.60;99.90;;;;;;2077832;28;20209;-62
2023/03/21 02:27:58;;;;;;;5.25;2.63;;;2.50;99.90;;;;;;2059842;28;20207;-63
2023/03/21 02:29:38;;;;;;;4.28;2.38;;;2.60;99.90;;;;;;2068485;28;20743;-63
2023/03/21 02:31:04;;;;;;;3.17;2.47;;;2.60;99.90;;;;;;2066819;28;20204;-63
2023/03/21 02:32:47;;;;;;;3.45;2.60;;;2.70;99.90;;;;;;2076536;28;20197;-62
2023/03/21 02:34:20;;;;;;;4.65;2.42;;;2.70;99.90;;;;;;2078684;28;20215;-63
2023/03/21 02:36:00;;;;;;;4.60;2.30;;;2.70;99.90;;;;;;2077239;28;20240;-63
2023/03/21 02:37:17;;;;;;;3.58;2.35;;;2.80;99.90;;;;;;2077562;28;20192;-63
2023/03/21 02:38:33;;;;;;;3.67;2.10;;;2.70;99.90;;;;;;2076985;28;20194;-63
2023/03/21 02:40:00;;;;;;;2.95;2.30;;;2.70;99.90;;;;;;2078909;28;20240;-63
2023/03/21 02:41:21;;;;;;;5.82;2.28;;;2.80;99.90;;;;;;2070250;28;20274;-63
2023/03/21 02:43:15;;;;;;;3.08;2.00;;;2.80;99.90;;;;;;2063737;28;20991;-63
2023/03/21 02:44:36;;;;;;;3.50;2.30;;;2.80;99.90;;;;;;2076622;28;20201;-63
2023/03/21 02:46:14;;;;;;;2.97;2.00;;;2.70;99.90;;;;;;2068497;28;20182;-63
2023/03/21 02:47:33;;;;;;;3.45;1.92;;;2.70;99.90;;;;;;2068741;28;20717;-63
2023/03/21 02:49:02;;;;;;;3.20;2.13;;;2.70;99.90;;;;;;2076554;28;20175;-63
2023/03/21 02:50:15;;;;;;;2.78;2.20;;;2.70;99.90;;;;;;2077444;28;20206;-63
2023/03/21 02:51:25;;;;;;;3.95;2.22;;;2.60;99.90;;;;;;2068230;28;20222;-62
2023/03/21 02:52:34;;;;;;;2.75;1.88;;;2.60;99.90;;;;;;2063196;28;20238;-63
2023/03/21 02:53:44;;;;;;;2.53;2.28;;;2.60;99.90;;;;;;2064565;28;20200;-62
2023/03/21 02:54:51;;;;;;;3.20;2.15;;;2.60;99.90;;;;;;2070889;28;20220;-63
2023/03/21 02:55:59;;;;;;;3.95;1.85;;;2.60;99.90;;;;;;2076818;28;20241;-63
2023/03/21 02:57:05;;;;;;;4.38;1.98;;;2.70;99.90;;;;;;2068555;28;20208;-63
2023/03/21 02:58:18;;;;;;;2.22;1.85;;;2.60;99.90;;;;;;2070636;28;20198;-62
2023/03/21 02:59:26;;;;;;;3.05;2.08;;;2.60;99.90;;;;;;2068639;28;20189;-60
2023/03/21 03:00:33;;;;;;;2.00;1.75;;;2.60;99.90;;;;;;2071281;28;20219;-63
2023/03/21 03:01:39;;;;;;;2.58;2.15;;;2.70;99.90;;;;;;2069033;28;20180;-62
2023/03/21 03:02:45;;;;;;;3.58;2.25;;;2.70;99.90;;;;;;2069855;28;20213;-62
2023/03/21 03:03:51;;;;;;;2.97;1.95;;;2.70;99.90;;;;;;2077328;28;20737;-63
2023/03/21 03:04:56;;;;;;;2.95;1.98;;;2.70;99.90;;;;;;2076751;28;20231;-63
2023/03/21 03:06:17;;;;;;;2.60;1.80;;;2.60;99.90;;;;;;2076962;28;20666;-62
2023/03/21 03:07:54;;;;;;;2.78;2.20;;;2.70;99.90;;;;;;2076944;28;20188;-61
2023/03/21 03:09:21;;;;;;;2.80;1.90;;;2.70;99.90;;;;;;2078953;28;20253;-63
2023/03/21 03:11:19;;;;;;;3.25;2.03;;;2.70;99.90;;;;;;2079027;28;20279;-63
2023/03/21 03:12:34;;;;;;;4.40;1.70;;;2.70;99.90;;;;;;2055569;28;20808;-63
2023/03/21 03:14:15;;;;;;;2.78;1.80;;;2.70;99.90;;;;;;2071011;28;20182;-62
2023/03/21 03:15:34;;;;;;;2.50;1.90;;;2.70;99.90;;;;;;2078259;28;20277;-62
2023/03/21 03:17:19;;;;;;;3.78;1.95;;;2.70;99.90;;;;;;2079406;28;20719;-62
2023/03/21 03:18:47;;;;;;;3.33;1.90;;;2.60;99.90;;;;;;2068482;28;20194;-63
2023/03/21 03:20:19;;;;;;;3.80;1.90;;;2.50;99.90;;;;;;2073035;28;20197;-63
2023/03/21 03:21:43;;;;;;;2.42;2.00;;;2.50;99.90;;;;;;2076339;28;20192;-61
2023/03/21 03:23:23;;;;;;;5.60;1.92;;;2.50;99.90;;;;;;2076180;28;20204;-63
2023/03/21 03:24:41;;;;;;;4.28;1.88;;;2.50;99.90;;;;;;2066242;28;20253;-63
2023/03/21 03:25:52;;;;;;;3.47;2.35;;;2.50;99.90;;;;;;2069389;28;20213;-63
2023/03/21 03:27:08;;;;;;;3.90;2.35;;;2.50;99.90;;;;;;2071173;28;20183;-63
2023/03/21 03:28:14;;;;;;;2.60;2.30;;;2.50;99.90;;;;;;2071085;28;20212;-63
2023/03/21 03:29:21;;;;;;;2.42;2.00;;;2.50;99.90;;;;;;2069418;28;20349;-63
2023/03/21 03:30:28;;;;;;;2.40;1.80;;;2.50;99.90;;;;;;2068310;28;20196;-63
2023/03/21 03:32:05;;;;;;;2.92;2.20;;;2.50;99.90;;;;;;2069259;28;20590;-63
2023/03/21 03:33:11;;;;;;;4.15;2.10;;;2.40;99.90;;;;;;2071298;28;20205;-63
2023/03/21 03:34:23;;;;;;;4.95;2.40;;;2.40;99.90;;;;;;2076655;28;20278;-63
2023/03/21 03:35:29;;;;;;;4.18;2.58;;;2.40;99.90;;;;;;2076712;28;20205;-63
2023/03/21 03:36:41;;;;;;;5.93;2.85;;;2.40;99.90;;;;;;2076769;28;20186;-63
2023/03/21 03:37:52;;;;;;;3.42;2.30;;;2.40;99.90;;;;;;2071071;28;20686;-63
2023/03/21 03:39:03;;;;;;;4.13;2.60;;;2.40;99.90;;;;;;2060813;28;20201;-62
2023/03/21 03:40:14;;;;;;;3.88;2.90;;;2.40;99.90;;;;;;2065845;28;20220;-63
2023/03/21 03:41:29;;;;;;;4.55;2.85;;;2.40;99.90;;;;;;2064033;28;20176;-63
2023/03/21 03:42:48;;;;;;;4.93;2.95;;;2.40;99.90;;;;;;2070894;28;20215;-63
2023/03/21 03:43:57;;;;;;;3.72;2.50;;;2.40;99.90;;;;;;2067983;28;20223;-63
2023/03/21 03:45:06;;;;;;;3.50;2.45;;;2.40;99.90;;;;;;2069594;28;20571;-63
2023/03/21 03:46:35;;;;;;;2.90;1.88;;;2.40;99.90;;;;;;2067954;28;20294;-63
2023/03/21 03:47:51;;;;;;;2.40;1.95;;;2.40;99.90;;;;;;2072499;28;20198;-63
2023/03/21 03:49:11;;;;;;;2.80;2.00;;;2.30;99.90;;;;;;2076713;28;20177;-63
2023/03/21 03:50:46;;;;;;;3.00;2.15;;;2.20;99.90;;;;;;2067985;28;20234;-63
2023/03/21 03:52:30;;;;;;;4.32;2.67;;;2.30;99.90;;;;;;2064816;28;20243;-63
2023/03/21 03:53:42;;;;;;;4.40;2.10;;;2.30;99.90;;;;;;2066474;28;20231;-63
2023/03/21 03:54:50;;;;;;;4.57;2.42;;;2.20;99.90;;;;;;2070391;28;20274;-63
2023/03/21 03:55:57;;;;;;;4.32;2.90;;;2.00;99.90;;;;;;2071508;28;20233;-63
2023/03/21 03:57:05;;;;;;;4.43;2.60;;;2.20;99.90;;;;;;2072990;28;20304;-63
2023/03/21 03:58:10;;;;;;;2.95;2.17;;;2.20;99.90;;;;;;2069733;28;20185;-63
2023/03/21 03:59:18;;;;;;;3.78;2.38;;;2.20;99.90;;;;;;2068987;28;20689;-63
2023/03/21 04:00:24;;;;;;;2.60;2.20;;;2.20;99.90;;;;;;2075822;28;20270;-63
2023/03/21 04:01:30;;;;;;;3.20;2.20;;;2.20;99.90;;;;;;2076350;28;20186;-63
2023/03/21 04:02:36;;;;;;;3.85;2.20;;;2.20;99.90;;;;;;2076644;28;20206;-63
2023/03/21 04:03:45;;;;;;;2.78;1.92;;;2.20;99.90;;;;;;2076471;28;20662;-63
2023/03/21 04:04:52;;;;;;;3.08;1.92;;;2.10;99.90;;;;;;2076915;28;20195;-62
2023/03/21 04:05:58;;;;;;;4.82;1.95;;;2.10;99.90;;;;;;2076809;28;20189;-62
2023/03/21 04:07:05;;;;;;;2.72;2.20;;;2.10;99.90;;;;;;2076708;28;20641;-63
2023/03/21 04:08:09;;;;;;;4.20;1.83;;;2.10;99.90;;;;;;2076449;28;20189;-63
2023/03/21 04:09:15;;;;;;;2.67;2.10;;;2.10;99.90;;;;;;2076588;28;20189;-63
2023/03/21 04:10:21;;;;;;;3.92;2.60;;;2.10;99.90;;;;;;2076414;28;20193;-63
2023/03/21 04:11:27;;;;;;;3.72;2.75;;;2.10;99.90;;;;;;2076262;28;20195;-63
2023/03/21 04:12:32;;;;;;;4.07;2.60;;;2.10;99.90;;;;;;2076453;28;20297;-62
2023/03/21 04:13:38;;;;;;;4.18;2.47;;;2.10;99.90;;;;;;2076674;28;20185;-63
2023/03/21 04:14:44;;;;;;;4.22;2.50;;;2.10;99.90;;;;;;2077657;28;20197;-63
2023/03/21 04:15:50;;;;;;;2.72;2.10;;;2.10;99.90;;;;;;2080204;28;20177;-63
2023/03/21 04:16:55;;;;;;;3.03;2.28;;;2.00;99.90;;;;;;2079674;28;20180;-62
2023/03/21 04:18:02;;;;;;;4.68;2.53;;;2.00;99.90;;;;;;2077059;28;20726;-61
2023/03/21 04:19:04;;;;;;;4.03;2.50;;;2.00;99.90;;;;;;2076733;28;20196;-62
2023/03/21 04:20:10;;;;;;;4.82;2.40;;;2.00;99.90;;;;;;2077062;28;20578;-63
2023/03/21 04:21:15;;;;;;;3.58;2.55;;;2.00;99.90;;;;;;2076786;28;20189;-63
2023/03/21 04:22:21;;;;;;;4.10;2.22;;;2.00;99.90;;;;;;2076491;28;20219;-62
2023/03/21 04:23:28;;;;;;;3.03;2.30;;;2.00;99.90;;;;;;2076813;28;20257;-63
2023/03/21 04:24:36;;;;;;;3.55;2.10;;;2.00;99.90;;;;;;2076939;28;20185;-62
2023/03/21 04:25:41;;;;;;;3.05;2.22;;;2.00;99.90;;;;;;2077075;28;20215;-63
2023/03/21 04:26:47;;;;;;;3.28;2.30;;;2.00;99.90;;;;;;2076805;28;20650;-62
2023/03/21 04:27:54;;;;;;;2.92;2.30;;;2.00;99.90;;;;;;2076635;28;20185;-61
2023/03/21 04:29:01;;;;;;;4.28;2.28;;;1.90;99.90;;;;;;2076625;28;20189;-62
2023/03/21 04:30:06;;;;;;;2.65;1.80;;;2.00;99.90;;;;;;2076433;28;20280;-63
2023/03/21 04:31:09;;;;;;;3.30;2.13;;;1.90;99.90;;;;;;2076385;28;20538;-62
2023/03/21 04:32:15;;;;;;;3.77;2.33;;;1.90;99.90;;;;;;2076560;28;20281;-63
2023/03/21 04:33:20;;;;;;;4.60;2.22;;;1.90;99.90;;;;;;2076746;28;20188;-62
2023/03/21 04:34:29;;;;;;;4.07;2.38;;;1.90;99.90;;;;;;2076918;28;20666;-63
2023/03/21 04:35:35;;;;;;;3.50;2.28;;;1.90;99.90;;;;;;2076523;28;20173;-62
2023/03/21 04:36:48;;;;;;;2.95;2.55;;;1.90;99.90;;;;;;2076599;28;20548;-62
2023/03/21 04:37:54;;;;;;;4.53;2.58;;;1.90;99.90;;;;;;2076413;28;20205;-63
2023/03/21 04:39:00;;;;;;;3.20;2.05;;;1.90;99.90;;;;;;2076809;28;20193;-63
2023/03/21 04:40:06;;;;;;;3.72;2.40;;;1.80;99.90;;;;;;2076659;28;20220;-63
2023/03/21 04:41:09;;;;;;;3.72;2.05;;;1.90;99.90;;;;;;2078004;28;20193;-63
2023/03/21 04:42:17;;;;;;;4.10;2.33;;;1.90;99.90;;;;;;2078067;28;20192;-62
2023/03/21 04:43:23;;;;;;;4.57;2.67;;;1.80;99.90;;;;;;2078006;28;20224;-62
2023/03/21 04:44:29;;;;;;;4.05;2.40;;;1.70;99.90;;;;;;2078054;28;20208;-63
2023/03/21 04:45:35;;;;;;;5.07;2.50;;;1.70;99.90;;;;;;2077976;28;20310;-62
2023/03/21 04:46:41;;;;;;;2.17;1.85;;;1.70;99.90;;;;;;2078085;28;20193;-62
2023/03/21 04:47:46;;;;;;;3.65;2.20;;;1.70;99.90;;;;;;2077966;28;20555;-62
2023/03/21 04:48:52;;;;;;;3.63;2.45;;;1.70;99.90;;;;;;2080309;28;20216;-62
2023/03/21 04:49:58;;;;;;;3.38;2.25;;;1.70;99.90;;;;;;2081809;28;20225;-63
2023/03/21 04:51:04;;;;;;;3.30;2.35;;;1.80;99.90;;;;;;2077982;28;20805;-63
2023/03/21 04:52:09;;;;;;;3.58;2.45;;;1.80;99.90;;;;;;2077540;28;20241;-63
2023/03/21 04:53:15;;;;;;;6.63;2.75;;;1.80;99.90;;;;;;2077942;28;20186;-63
2023/03/21 04:54:21;;;;;;;4.82;2.47;;;1.90;99.90;;;;;;2081578;28;20182;-63
2023/03/21 04:55:28;;;;;;;3.25;2.58;;;1.80;99.90;;;;;;2078265;28;20187;-63
2023/03/21 04:56:35;;;;;;;6.32;2.70;;;1.70;99.90;;;;;;2078267;28;20231;-62
2023/03/21 04:57:40;;;;;;;2.70;2.17;;;1.80;99.90;;;;;;2078009;28;20216;-63
2023/03/21 04:58:46;;;;;;;2.65;2.17;;;1.80;99.90;;;;;;2077882;28;20186;-63
2023/03/21 04:59:52;;;;;;;4.25;2.47;;;1.80;99.90;;;;;;2077859;28;20185;-62
2023/03/21 05:00:57;;;;;;;3.35;2.10;;;1.80;99.90;;;;;;2077961;28;20664;-62
2023/03/21 05:02:03;;;;;;;3.38;2.08;;;1.80;99.90;;;;;;2077615;28;20189;-63
2023/03/21 05:03:07;;;;;;;3.80;2.35;;;1.80;99.90;;;;;;2078056;28;20564;-63
2023/03/21 05:04:12;;;;;;;3.03;1.77;;;1.90;99.90;;;;;;2078015;28;20684;-63
2023/03/21 05:05:18;;;;;;;3.95;2.72;;;1.80;99.90;;;;;;2078152;28;20188;-63
2023/03/21 05:06:25;;;;;;;4.63;2.45;;;1.90;99.90;;;;;;2077894;28;20276;-63
2023/03/21 05:07:31;;;;;;;3.80;2.00;;;1.90;99.90;;;;;;2077951;28;20188;-64
2023/03/21 05:08:37;;;;;;;2.17;1.58;;;1.80;99.90;;;;;;2077629;28;20652;-64
2023/03/21 05:09:43;;;;;;;3.63;2.58;;;1.90;99.90;;;;;;2078131;28;20250;-63
2023/03/21 05:10:48;;;;;;;3.83;2.15;;;1.90;99.90;;;;;;2078104;28;20185;-63
2023/03/21 05:11:54;;;;;;;3.53;2.13;;;1.90;99.90;;;;;;2078066;28;20251;-63
2023/03/21 05:13:00;;;;;;;2.42;2.00;;;1.80;99.90;;;;;;2078137;28;20193;-64
2023/03/21 05:14:08;;;;;;;3.30;2.10;;;1.80;99.90;;;;;;2077724;28;20196;-63
2023/03/21 05:15:10;;;;;;;3.47;2.08;;;1.80;99.90;;;;;;2068849;28;20193;-63
2023/03/21 05:16:15;;;;;;;3.08;2.30;;;1.80;99.90;;;;;;2070014;28;20213;-64
2023/03/21 05:17:27;;;;;;;8.10;2.50;;;1.70;99.90;;;;;;2077786;28;20193;-64
2023/03/21 05:18:33;;;;;;;3.10;2.35;;;1.70;99.90;;;;;;2077791;28;20590;-62
2023/03/21 05:19:39;;;;;;;4.55;2.22;;;1.70;99.90;;;;;;2077829;28;20244;-64
2023/03/21 05:20:46;;;;;;;3.72;2.33;;;1.70;99.90;;;;;;2077728;28;20246;-64
2023/03/21 05:21:51;;;;;;;2.33;2.10;;;1.80;99.90;;;;;;2077506;28;20181;-64
2023/03/21 05:22:57;;;;;;;4.85;2.28;;;1.80;99.90;;;;;;2077625;28;20213;-64
2023/03/21 05:24:03;;;;;;;2.78;2.03;;;1.80;99.90;;;;;;2077626;28;20174;-64
2023/03/21 05:25:08;;;;;;;4.47;2.75;;;1.80;99.90;;;;;;2077602;28;20193;-63
2023/03/21 05:26:09;;;;;;;3.78;2.47;;;1.70;99.90;;;;;;2077109;28;20251;-64
2023/03/21 05:27:35;;;;;;;3.97;2.67;;;1.80;99.90;;;;;;2077108;28;20727;-64
2023/03/21 05:28:40;;;;;;;4.75;2.40;;;1.90;99.90;;;;;;2080501;28;20239;-63
2023/03/21 05:29:46;;;;;;;4.63;2.60;;;2.00;99.90;;;;;;2077454;28;20223;-63
2023/03/21 05:30:52;;;;;;;3.60;2.38;;;1.90;99.90;;;;;;2077652;28;20211;-62
2023/03/21 05:31:59;;;;;;;3.80;2.35;;;1.90;99.90;;;;;;2077236;28;20681;-64
2023/03/21 05:33:04;;;;;;;3.70;2.38;;;2.00;99.90;;;;;;2077547;28;20564;-63
2023/03/21 05:34:09;;;;;;;3.97;2.50;;;2.00;99.90;;;;;;2077597;28;20194;-63
2023/03/21 05:35:15;;;;;;;2.53;2.28;;;2.00;99.90;;;;;;2077775;28;20898;-64
2023/03/21 05:36:21;;;;;;;6.57;3.00;;;2.00;99.90;;;;;;2078177;28;20200;-64
2023/03/21 05:37:27;;;;;;;4.38;2.53;;;2.00;99.90;;;;;;2077981;28;20711;-64
2023/03/21 05:38:33;;;;;;;3.88;2.83;;;2.00;99.90;;;;;;2077725;28;20187;-63
2023/03/21 05:39:38;;;;;;;3.55;2.65;;;1.90;99.90;;;;;;2081328;28;20186;-63
2023/03/21 05:40:49;;;;;;;5.07;2.80;;;1.80;99.90;;;;;;2078429;28;20705;-63
2023/03/21 05:41:55;;;;;;;4.95;2.90;;;1.90;99.90;;;;;;2069300;28;20219;-63
2023/03/21 05:43:00;;;;;;;4.43;3.83;;;1.90;99.90;;;;;;2071014;28;20229;-63
2023/03/21 05:44:05;;;;;;;6.85;4.13;;;1.90;99.90;;;;;;2080421;28;20213;-64
2023/03/21 05:45:10;;;;;;;5.30;3.55;;;1.90;99.90;;;;;;2077620;28;20650;-63
2023/03/21 05:46:16;;;;;;;4.40;3.03;;;1.90;99.90;;;;;;2077676;28;20178;-62
2023/03/21 05:47:22;;;;;;;6.45;3.85;;;1.80;99.90;;;;;;2077576;28;20615;-63
2023/03/21 05:48:27;;;;;;;3.65;3.13;;;1.80;99.90;;;;;;2077384;28;20339;-63
2023/03/21 05:49:33;;;;;;;4.47;3.15;;;1.80;99.90;;;;;;2077639;28;20189;-63
2023/03/21 05:50:40;;;;;;;4.00;3.05;;;1.80;99.90;;;;;;2077345;28;20190;-63
2023/03/21 05:51:45;;;;;;;3.45;2.90;;;1.80;99.90;;;;;;2077141;28;20269;-64
2023/03/21 05:52:51;;;;;;;4.75;3.05;;;1.80;99.90;;;;;;2076520;28;20229;-64
2023/03/21 05:53:57;;;;;;;3.70;2.75;;;1.90;99.90;;;;;;2077477;28;20178;-63
2023/03/21 05:55:03;;;;;;;4.97;3.05;;;1.90;99.90;;;;;;2077390;28;20230;-64
2023/03/21 05:56:05;;;;;;;4.35;2.80;;;2.00;99.90;;;;;;2077428;28;20193;-63
2023/03/21 05:57:09;;;;;;;6.15;3.60;;;2.00;99.90;;;;;;2077467;28;20610;-64
2023/03/21 05:58:15;;;;;;;3.78;2.90;;;2.00;99.90;;;;;;2077485;28;20190;-64
2023/03/21 05:59:21;;;;;;;4.57;2.90;;;2.10;99.90;;;;;;2077691;28;20266;-64
2023/03/21 06:00:27;;;;;;;3.85;2.60;;;2.20;99.90;;;;;;2077569;28;20206;-64
2023/03/21 06:01:32;;;;;;;5.07;2.78;;;2.20;99.90;;;;;;2077577;28;20200;-64
2023/03/21 06:02:38;;;;;;;5.45;3.30;;;2.30;99.90;;;;;;2077686;28;20231;-64
2023/03/21 06:03:44;;;;;;;4.45;3.38;;;2.30;99.90;;;;;;2077539;28;20196;-64
2023/03/21 06:04:50;;;;;;;3.80;2.65;;;2.30;99.90;;;;;;2077283;28;20194;-64
2023/03/21 06:05:56;;;;;;;5.13;3.05;;;2.30;99.90;;;;;;2077397;28;20195;-64
2023/03/21 06:07:01;;;;;;;4.18;2.90;;;2.40;99.90;;;;;;2077312;28;20265;-64
2023/03/21 06:08:05;;;;;;;4.30;2.45;;;2.40;99.90;;;;;;2068570;28;20202;-64
2023/03/21 06:09:10;;;;;;;4.93;3.03;;;2.40;99.90;;;;;;2069374;28;20282;-63
2023/03/21 06:10:15;;;;;;;4.90;3.08;;;2.40;99.90;;;;;;2080171;28;20177;-64
2023/03/21 06:11:35;;;;;;;3.58;2.50;;;2.40;99.90;;;;;;2077360;28;20224;-63